Time;durP1;ratioP1;P1;durP2;ratioP2;P2;SDS_P1;SDS_P2;PMS_P1;PMS_P2;Temp;Humidity;BMP_temperature;BMP_pressure;BME280_temperature;BME280_humidity;BME280_pressure;Samples;Min_cycle;Max_cycle;Signal;HPM_P1;HPM_P2
2023/05/31 00:01:15;;;;;;;1.30;1.20;;;;;;;;;;2105790;28;20044;-61
2023/05/31 00:02:34;;;;;;;5.32;1.50;;;;;;;;;;2102112;28;20475;-61
2023/05/31 00:03:53;;;;;;;4.40;1.50;;;;;;;;;;2105162;28;20020;-61
2023/05/31 00:05:12;;;;;;;3.17;1.40;;;;;;;;;;2102568;28;20664;-62
2023/05/31 00:06:31;;;;;;;3.22;1.35;;;;;;;;;;2105257;28;20107;-62
2023/05/31 00:07:50;;;;;;;3.47;1.38;;;;;;;;;;2104049;28;20048;-61
2023/05/31 00:09:09;;;;;;;2.17;1.45;;;;;;;;;;2100547;28;20032;-61
2023/05/31 00:10:28;;;;;;;3.40;1.90;;;;;;;;;;2103256;28;20040;-61
2023/05/31 00:11:47;;;;;;;1.70;1.15;;;;;;;;;;2104043;28;20066;-61
2023/05/31 00:13:06;;;;;;;1.88;1.70;;;;;;;;;;2103221;28;20028;-60
2023/05/31 00:14:25;;;;;;;3.33;1.35;;;;;;;;;;2102186;28;20024;-61
2023/05/31 00:15:44;;;;;;;2.15;1.38;;;;;;;;;;2102667;28;20103;-60
2023/05/31 00:17:03;;;;;;;3.47;1.30;;;;;;;;;;2104078;28;20489;-60
2023/05/31 00:18:22;;;;;;;2.08;1.38;;;;;;;;;;2104315;28;20285;-62
2023/05/31 00:19:41;;;;;;;3.22;1.20;;;;;;;;;;2103316;28;20028;-62
2023/05/31 00:21:00;;;;;;;2.22;1.40;;;;;;;;;;2103984;28;20029;-60
2023/05/31 00:22:19;;;;;;;4.53;1.17;;;;;;;;;;2105134;28;20066;-62
2023/05/31 00:23:38;;;;;;;2.50;1.38;;;;;;;;;;2103267;28;20027;-61
2023/05/31 00:24:57;;;;;;;3.50;1.55;;;;;;;;;;2104313;28;20024;-62
2023/05/31 00:26:16;;;;;;;2.42;1.35;;;;;;;;;;2102016;28;20078;-61
2023/05/31 00:27:35;;;;;;;3.47;1.00;;;;;;;;;;2102649;28;20031;-62
2023/05/31 00:28:54;;;;;;;2.38;1.27;;;;;;;;;;2101398;28;20032;-62
2023/05/31 00:30:14;;;;;;;2.33;1.45;;;;;;;;;;2103670;28;20036;-62
2023/05/31 00:31:32;;;;;;;1.58;1.15;;;;;;;;;;2102836;28;20063;-62
2023/05/31 00:32:51;;;;;;;2.05;1.20;;;;;;;;;;2102871;28;20024;-62
2023/05/31 00:34:11;;;;;;;1.23;1.08;;;;;;;;;;2103963;28;20028;-62
2023/05/31 00:35:30;;;;;;;1.45;1.20;;;;;;;;;;2101780;28;20016;-62
2023/05/31 00:36:49;;;;;;;1.73;1.30;;;;;;;;;;2099965;28;21232;-62
2023/05/31 00:38:08;;;;;;;1.63;1.10;;;;;;;;;;2103781;28;20032;-60
2023/05/31 00:39:27;;;;;;;2.42;1.60;;;;;;;;;;2102305;28;20488;-62
2023/05/31 00:40:47;;;;;;;5.47;1.75;;;;;;;;;;2103311;28;20024;-61
2023/05/31 00:42:07;;;;;;;1.75;1.10;;;;;;;;;;2103079;28;20016;-60
2023/05/31 00:43:26;;;;;;;2.80;1.20;;;;;;;;;;2103501;28;20497;-62
2023/05/31 00:44:45;;;;;;;1.67;1.10;;;;;;;;;;2103654;28;20032;-62
2023/05/31 00:46:04;;;;;;;4.60;1.50;;;;;;;;;;2101430;28;20040;-61
2023/05/31 00:47:25;;;;;;;1.70;1.42;;;;;;;;;;2100175;28;20028;-60
2023/05/31 00:48:45;;;;;;;2.72;1.58;;;;;;;;;;2103930;28;20496;-62
2023/05/31 00:50:04;;;;;;;6.18;1.48;;;;;;;;;;2100081;28;20497;-61
2023/05/31 00:51:24;;;;;;;1.80;1.15;;;;;;;;;;2102389;28;20032;-61
2023/05/31 00:52:45;;;;;;;3.60;1.20;;;;;;;;;;2102426;28;20020;-62
2023/05/31 00:54:04;;;;;;;1.35;1.13;;;;;;;;;;2102949;28;20032;-61
2023/05/31 00:55:24;;;;;;;3.05;1.40;;;;;;;;;;2103384;28;20389;-61
2023/05/31 00:56:42;;;;;;;1.40;1.10;;;;;;;;;;2101683;28;20024;-61
2023/05/31 00:58:01;;;;;;;1.23;1.13;;;;;;;;;;2102088;28;20024;-62
2023/05/31 00:59:20;;;;;;;1.52;1.20;;;;;;;;;;2102703;28;20027;-62
2023/05/31 01:00:39;;;;;;;1.33;1.02;;;;;;;;;;2100796;28;21116;-62
2023/05/31 01:01:59;;;;;;;1.98;1.33;;;;;;;;;;2103261;28;20540;-62
2023/05/31 01:03:20;;;;;;;1.10;1.00;;;;;;;;;;2102929;28;20448;-62
2023/05/31 01:04:39;;;;;;;2.72;1.27;;;;;;;;;;2102148;28;20024;-61
2023/05/31 01:06:00;;;;;;;3.42;1.25;;;;;;;;;;2103813;28;20020;-62
2023/05/31 01:07:19;;;;;;;3.03;1.20;;;;;;;;;;2100904;28;20454;-61
2023/05/31 01:08:39;;;;;;;2.40;1.17;;;;;;;;;;2102339;28;20032;-58
2023/05/31 01:09:58;;;;;;;1.65;1.23;;;;;;;;;;2098208;28;20029;-62
2023/05/31 01:11:22;;;;;;;1.13;1.00;;;;;;;;;;2100978;28;20032;-61
2023/05/31 01:12:41;;;;;;;;;;;;;;;;;;2102807;28;20054;-62
2023/05/31 01:14:12;;;;;;;1.70;1.30;;;;;;;;;;2103994;28;19912;-62
2023/05/31 01:15:33;;;;;;;4.30;1.25;;;;;;;;;;2103154;28;20028;-61
2023/05/31 01:17:05;;;;;;;1.55;0.93;;;;;;;;;;2104138;28;20480;-62
2023/05/31 01:18:44;;;;;;;1.42;1.10;;;;;;;;;;2105057;28;20028;-61
2023/05/31 01:20:11;;;;;;;1.70;1.23;;;;;;;;;;2102820;28;20032;-60
2023/05/31 01:21:37;;;;;;;3.85;1.30;;;;;;;;;;2101840;28;20020;-61
2023/05/31 01:23:02;;;;;;;1.98;1.40;;;;;;;;;;2102441;28;20493;-62
2023/05/31 01:24:31;;;;;;;1.63;1.35;;;;;;;;;;2104009;28;20036;-62
2023/05/31 01:25:53;;;;;;;2.35;1.10;;;;;;;;;;2103765;28;20020;-61
2023/05/31 01:27:13;;;;;;;1.67;1.10;;;;;;;;;;2101419;28;20079;-62
2023/05/31 01:28:37;;;;;;;1.60;1.20;;;;;;;;;;2102841;28;20503;-61
2023/05/31 01:29:57;;;;;;;1.17;0.98;;;;;;;;;;2105305;28;20024;-61
2023/05/31 01:31:20;;;;;;;2.17;1.10;;;;;;;;;;2104357;28;20028;-60
2023/05/31 01:32:40;;;;;;;1.27;1.17;;;;;;;;;;2096380;28;20471;-60
2023/05/31 01:33:59;;;;;;;1.75;1.10;;;;;;;;;;2103963;28;20028;-60
2023/05/31 01:35:18;;;;;;;1.77;1.13;;;;;;;;;;2101181;28;20024;-61
2023/05/31 01:36:37;;;;;;;0.98;0.88;;;;;;;;;;2100434;28;20021;-61
2023/05/31 01:37:56;;;;;;;1.92;0.98;;;;;;;;;;2098572;28;20036;-62
2023/05/31 01:39:15;;;;;;;1.50;1.30;;;;;;;;;;2101953;28;20032;-62
2023/05/31 01:40:35;;;;;;;2.10;0.90;;;;;;;;;;2104363;28;20024;-59
2023/05/31 01:41:55;;;;;;;1.80;1.20;;;;;;;;;;2102113;28;20136;-61
2023/05/31 01:43:14;;;;;;;2.35;1.27;;;;;;;;;;2105121;28;20119;-62
2023/05/31 01:44:34;;;;;;;1.65;1.05;;;;;;;;;;2101551;28;20636;-59
2023/05/31 01:45:54;;;;;;;1.65;0.90;;;;;;;;;;2101851;28;20036;-61
2023/05/31 01:47:14;;;;;;;1.10;1.00;;;;;;;;;;2101596;28;20024;-61
2023/05/31 01:48:33;;;;;;;1.88;0.93;;;;;;;;;;2105341;28;20028;-61
2023/05/31 01:49:52;;;;;;;1.70;1.23;;;;;;;;;;2102723;28;20067;-61
2023/05/31 01:51:14;;;;;;;2.38;1.00;;;;;;;;;;2102854;28;20051;-61
2023/05/31 01:52:34;;;;;;;1.17;0.90;;;;;;;;;;2103380;28;20036;-61
2023/05/31 01:53:53;;;;;;;3.65;1.20;;;;;;;;;;2103046;28;20020;-61
2023/05/31 01:55:12;;;;;;;1.27;1.10;;;;;;;;;;2103214;28;20448;-61
2023/05/31 01:56:32;;;;;;;1.83;1.23;;;;;;;;;;2102092;28;20485;-62
2023/05/31 01:57:51;;;;;;;1.42;1.10;;;;;;;;;;2102922;28;20036;-61
2023/05/31 01:59:11;;;;;;;2.20;1.00;;;;;;;;;;2104859;28;20414;-62
2023/05/31 02:00:31;;;;;;;1.20;1.10;;;;;;;;;;2101050;28;20024;-60
2023/05/31 02:01:50;;;;;;;4.78;1.17;;;;;;;;;;2104477;28;20560;-61
2023/05/31 02:03:09;;;;;;;4.60;1.63;;;;;;;;;;2103172;28;20032;-61
2023/05/31 02:04:28;;;;;;;2.80;1.48;;;;;;;;;;2102377;28;20024;-60
2023/05/31 02:05:53;;;;;;;4.55;1.15;;;;;;;;;;2104989;28;20450;-59
2023/05/31 02:07:12;;;;;;;4.45;1.30;;;;;;;;;;2102034;28;20040;-61
2023/05/31 02:08:31;;;;;;;2.63;1.13;;;;;;;;;;2102079;28;20040;-61
2023/05/31 02:09:51;;;;;;;2.20;1.02;;;;;;;;;;2102455;28;20057;-61
2023/05/31 02:11:10;;;;;;;2.22;1.27;;;;;;;;;;2102248;28;20060;-62
2023/05/31 02:12:29;;;;;;;1.90;1.35;;;;;;;;;;2103613;28;20473;-61
2023/05/31 02:13:48;;;;;;;5.85;1.17;;;;;;;;;;2104839;28;20480;-62
2023/05/31 02:15:12;;;;;;;1.55;1.10;;;;;;;;;;2100410;28;20028;-61
2023/05/31 02:16:31;;;;;;;2.20;1.27;;;;;;;;;;2106199;28;20028;-62
2023/05/31 02:17:51;;;;;;;1.33;0.80;;;;;;;;;;2102426;28;20024;-62
2023/05/31 02:19:13;;;;;;;1.00;0.93;;;;;;;;;;2105126;28;20385;-61
2023/05/31 02:20:32;;;;;;;3.15;0.98;;;;;;;;;;2105280;28;20489;-60
2023/05/31 02:21:52;;;;;;;2.13;0.90;;;;;;;;;;2105128;28;20922;-59
2023/05/31 02:23:11;;;;;;;3.22;1.05;;;;;;;;;;2103507;28;21663;-62
2023/05/31 02:24:30;;;;;;;1.20;1.10;;;;;;;;;;2103057;28;20036;-60
2023/05/31 02:25:50;;;;;;;2.05;0.98;;;;;;;;;;2104261;28;20024;-64
2023/05/31 02:27:09;;;;;;;0.93;0.70;;;;;;;;;;2104793;28;20036;-61
2023/05/31 02:28:29;;;;;;;1.73;0.85;;;;;;;;;;2105872;28;20055;-61
2023/05/31 02:29:48;;;;;;;1.08;1.00;;;;;;;;;;2103852;28;20031;-62
2023/05/31 02:31:07;;;;;;;1.27;1.00;;;;;;;;;;2105116;28;20393;-62
2023/05/31 02:32:26;;;;;;;0.60;0.60;;;;;;;;;;2105912;28;20389;-61
2023/05/31 02:33:45;;;;;;;2.45;0.80;;;;;;;;;;2105785;28;20453;-61
2023/05/31 02:35:08;;;;;;;1.80;0.90;;;;;;;;;;2102615;28;20477;-62
2023/05/31 02:36:28;;;;;;;6.07;0.80;;;;;;;;;;2102139;28;20040;-60
2023/05/31 02:37:47;;;;;;;1.08;0.80;;;;;;;;;;2104057;28;20489;-62
2023/05/31 02:39:06;;;;;;;1.83;0.90;;;;;;;;;;2105171;28;20036;-62
2023/05/31 02:40:24;;;;;;;0.73;0.70;;;;;;;;;;2103100;28;20020;-60
2023/05/31 02:41:43;;;;;;;2.25;0.90;;;;;;;;;;2103844;28;20046;-60
2023/05/31 02:43:02;;;;;;;2.72;0.80;;;;;;;;;;2102256;28;20036;-61
2023/05/31 02:44:21;;;;;;;1.23;0.80;;;;;;;;;;2105617;28;20028;-61
2023/05/31 02:45:40;;;;;;;1.30;0.90;;;;;;;;;;2103257;28;20056;-59
2023/05/31 02:46:59;;;;;;;3.00;1.10;;;;;;;;;;2105275;28;20029;-62
2023/05/31 02:48:18;;;;;;;5.25;1.00;;;;;;;;;;2103586;28;20484;-60
2023/05/31 02:49:37;;;;;;;2.13;0.90;;;;;;;;;;2103583;28;20035;-61
2023/05/31 02:50:56;;;;;;;1.10;0.80;;;;;;;;;;2106612;28;20036;-61
2023/05/31 02:52:15;;;;;;;2.30;0.82;;;;;;;;;;2105135;28;20177;-60
2023/05/31 02:53:33;;;;;;;0.80;0.80;;;;;;;;;;2105597;28;20385;-61
2023/05/31 02:54:52;;;;;;;1.02;0.77;;;;;;;;;;2100962;28;20127;-62
2023/05/31 02:56:12;;;;;;;2.75;0.77;;;;;;;;;;2102965;28;20024;-61
2023/05/31 02:57:31;;;;;;;0.93;0.73;;;;;;;;;;2103645;28;20381;-59
2023/05/31 02:58:50;;;;;;;1.23;0.60;;;;;;;;;;2105792;28;20025;-60
2023/05/31 03:00:18;;;;;;;2.30;0.85;;;;;;;;;;2102209;28;20585;-61
2023/05/31 03:01:37;;;;;;;1.73;0.75;;;;;;;;;;2103781;28;20036;-61
2023/05/31 03:02:56;;;;;;;1.27;0.77;;;;;;;;;;2105458;28;20032;-61
2023/05/31 03:04:15;;;;;;;1.65;0.70;;;;;;;;;;2104480;28;20501;-62
2023/05/31 03:05:34;;;;;;;3.42;0.77;;;;;;;;;;2101623;28;20115;-61
2023/05/31 03:06:53;;;;;;;1.10;0.63;;;;;;;;;;2105087;28;20451;-60
2023/05/31 03:08:12;;;;;;;0.60;0.60;;;;;;;;;;2105588;28;20411;-61
2023/05/31 03:09:31;;;;;;;2.47;1.00;;;;;;;;;;2104667;28;20090;-61
2023/05/31 03:10:50;;;;;;;1.48;1.02;;;;;;;;;;2102881;28;20032;-59
2023/05/31 03:12:10;;;;;;;1.60;0.82;;;;;;;;;;2105476;28;20016;-61
2023/05/31 03:13:29;;;;;;;0.75;0.70;;;;;;;;;;2104883;28;20020;-62
2023/05/31 03:14:48;;;;;;;0.70;0.60;;;;;;;;;;2105919;28;20020;-60
2023/05/31 03:16:07;;;;;;;1.45;0.77;;;;;;;;;;2105307;28;20068;-61
2023/05/31 03:17:26;;;;;;;1.33;0.70;;;;;;;;;;2103025;28;20511;-61
2023/05/31 03:18:45;;;;;;;1.45;0.65;;;;;;;;;;2104992;28;20481;-61
2023/05/31 03:20:06;;;;;;;2.75;0.70;;;;;;;;;;2103060;28;20604;-61
2023/05/31 03:21:25;;;;;;;0.73;0.73;;;;;;;;;;2101681;28;20738;-61
2023/05/31 03:22:43;;;;;;;1.13;0.68;;;;;;;;;;2104627;28;20060;-61
2023/05/31 03:24:02;;;;;;;1.52;0.57;;;;;;;;;;2104744;28;20028;-60
2023/05/31 03:25:21;;;;;;;0.77;0.60;;;;;;;;;;2102704;28;20047;-61
2023/05/31 03:26:40;;;;;;;0.38;0.38;;;;;;;;;;2103894;28;20040;-61
2023/05/31 03:28:00;;;;;;;1.50;0.70;;;;;;;;;;2104250;28;20059;-60
2023/05/31 03:29:18;;;;;;;1.77;0.63;;;;;;;;;;2103288;28;20056;-61
2023/05/31 03:30:37;;;;;;;0.57;0.52;;;;;;;;;;2102658;28;20032;-60
2023/05/31 03:31:56;;;;;;;0.95;0.40;;;;;;;;;;2105342;28;20032;-61
2023/05/31 03:33:16;;;;;;;0.80;0.80;;;;;;;;;;2102338;28;20032;-62
2023/05/31 03:34:35;;;;;;;0.60;0.57;;;;;;;;;;2103475;28;20477;-61
2023/05/31 03:35:54;;;;;;;0.77;0.77;;;;;;;;;;2103748;28;20028;-60
2023/05/31 03:37:13;;;;;;;1.83;0.60;;;;;;;;;;2104025;28;20024;-61
2023/05/31 03:38:32;;;;;;;2.50;0.55;;;;;;;;;;2104774;28;20060;-61
2023/05/31 03:39:51;;;;;;;1.17;0.80;;;;;;;;;;2101644;28;20032;-61
2023/05/31 03:41:10;;;;;;;2.00;0.52;;;;;;;;;;2102864;28;20204;-61
2023/05/31 03:42:31;;;;;;;2.38;0.60;;;;;;;;;;2105016;28;20492;-61
2023/05/31 03:43:51;;;;;;;1.65;0.73;;;;;;;;;;2102979;28;20036;-60
2023/05/31 03:45:10;;;;;;;1.33;0.55;;;;;;;;;;2101019;28;20020;-60
2023/05/31 03:46:30;;;;;;;1.15;0.70;;;;;;;;;;2105612;28;20115;-62
2023/05/31 03:47:49;;;;;;;0.70;0.68;;;;;;;;;;2104742;28;20098;-61
2023/05/31 03:49:08;;;;;;;2.15;0.57;;;;;;;;;;2103363;28;20025;-61
2023/05/31 03:50:27;;;;;;;1.10;0.65;;;;;;;;;;2102738;28;20036;-62
2023/05/31 03:51:46;;;;;;;1.48;0.50;;;;;;;;;;2100354;28;20043;-61
2023/05/31 03:53:05;;;;;;;1.85;0.60;;;;;;;;;;2101704;28;20472;-60
2023/05/31 03:54:24;;;;;;;0.70;0.60;;;;;;;;;;2103240;28;20325;-61
2023/05/31 03:55:43;;;;;;;3.55;0.65;;;;;;;;;;2103753;28;20032;-61
2023/05/31 03:57:02;;;;;;;1.10;0.55;;;;;;;;;;2101306;28;20035;-60
2023/05/31 03:58:21;;;;;;;3.50;0.63;;;;;;;;;;2100722;28;20027;-61
2023/05/31 03:59:39;;;;;;;0.68;0.43;;;;;;;;;;2103067;28;20024;-61
2023/05/31 04:00:58;;;;;;;0.70;0.47;;;;;;;;;;2101674;28;20016;-61
2023/05/31 04:02:17;;;;;;;0.60;0.60;;;;;;;;;;2101185;28;20573;-61
2023/05/31 04:03:37;;;;;;;1.20;0.50;;;;;;;;;;2102811;28;20029;-60
2023/05/31 04:04:56;;;;;;;1.67;0.50;;;;;;;;;;2104905;28;20393;-60
2023/05/31 04:06:15;;;;;;;1.00;0.43;;;;;;;;;;2104359;28;20036;-61
2023/05/31 04:07:35;;;;;;;2.97;0.60;;;;;;;;;;2101614;28;20032;-60
2023/05/31 04:08:54;;;;;;;1.75;0.50;;;;;;;;;;2104315;28;20020;-62
2023/05/31 04:10:13;;;;;;;1.60;0.40;;;;;;;;;;2099888;28;20028;-61
2023/05/31 04:11:32;;;;;;;1.55;0.63;;;;;;;;;;2105811;28;20060;-62
2023/05/31 04:12:51;;;;;;;0.43;0.40;;;;;;;;;;2105271;28;20060;-62
2023/05/31 04:14:10;;;;;;;1.67;0.47;;;;;;;;;;2104938;28;20032;-61
2023/05/31 04:15:29;;;;;;;1.42;0.50;;;;;;;;;;2101252;28;20046;-61
2023/05/31 04:16:48;;;;;;;1.25;0.60;;;;;;;;;;2102583;28;20045;-60
2023/05/31 04:18:07;;;;;;;0.75;0.75;;;;;;;;;;2105309;28;20024;-61
2023/05/31 04:19:26;;;;;;;2.30;0.60;;;;;;;;;;2103775;28;20420;-60
2023/05/31 04:20:44;;;;;;;1.92;0.70;;;;;;;;;;2101254;28;20020;-61
2023/05/31 04:22:03;;;;;;;0.50;0.47;;;;;;;;;;2105044;28;20031;-61
2023/05/31 04:23:22;;;;;;;2.45;0.60;;;;;;;;;;2103215;28;20995;-60
2023/05/31 04:24:41;;;;;;;2.13;0.60;;;;;;;;;;2104524;28;20031;-61
2023/05/31 04:26:01;;;;;;;1.50;0.55;;;;;;;;;;2104130;28;20020;-61
2023/05/31 04:27:21;;;;;;;0.80;0.68;;;;;;;;;;2105903;28;20444;-61
2023/05/31 04:28:41;;;;;;;2.67;0.80;;;;;;;;;;2104245;28;20473;-61
2023/05/31 04:30:00;;;;;;;0.45;0.45;;;;;;;;;;2104662;28;20024;-61
2023/05/31 04:31:20;;;;;;;3.33;0.85;;;;;;;;;;2104132;28;20481;-61
2023/05/31 04:32:39;;;;;;;2.55;0.60;;;;;;;;;;2099691;28;20381;-61
2023/05/31 04:33:59;;;;;;;0.85;0.60;;;;;;;;;;2101428;28;20024;-61
2023/05/31 04:35:18;;;;;;;0.85;0.40;;;;;;;;;;2103914;28;20028;-61
2023/05/31 04:36:39;;;;;;;2.00;0.52;;;;;;;;;;2104708;28;20035;-61
2023/05/31 04:37:59;;;;;;;2.28;0.63;;;;;;;;;;2098531;28;20025;-61
2023/05/31 04:39:19;;;;;;;3.10;0.57;;;;;;;;;;2101234;28;20028;-61
2023/05/31 04:40:40;;;;;;;2.75;0.57;;;;;;;;;;2097209;28;20035;-61
2023/05/31 04:41:59;;;;;;;1.13;0.43;;;;;;;;;;2103345;28;20028;-60
2023/05/31 04:43:18;;;;;;;0.40;0.40;;;;;;;;;;2100484;28;20019;-61
2023/05/31 04:44:37;;;;;;;1.00;0.73;;;;;;;;;;2102480;28;20032;-62
2023/05/31 04:46:00;;;;;;;1.33;0.60;;;;;;;;;;2100521;28;20040;-62
2023/05/31 04:47:19;;;;;;;0.70;0.55;;;;;;;;;;2103088;28;20115;-62
2023/05/31 04:48:38;;;;;;;0.65;0.40;;;;;;;;;;2103530;28;20024;-62
2023/05/31 04:49:57;;;;;;;1.98;0.50;;;;;;;;;;2100477;28;20024;-61
2023/05/31 04:51:17;;;;;;;2.85;0.70;;;;;;;;;;2099470;28;20066;-61
2023/05/31 04:52:39;;;;;;;0.50;0.30;;;;;;;;;;2103569;28;20485;-60
2023/05/31 04:53:59;;;;;;;2.05;0.50;;;;;;;;;;2100947;28;20032;-62
2023/05/31 04:55:18;;;;;;;1.67;0.77;;;;;;;;;;2100175;28;20032;-60
2023/05/31 04:56:37;;;;;;;1.65;0.50;;;;;;;;;;2098897;28;20035;-61
2023/05/31 04:57:56;;;;;;;0.90;0.50;;;;;;;;;;2099422;28;20023;-61
2023/05/31 04:59:15;;;;;;;4.22;0.90;;;;;;;;;;2098736;28;20639;-61
2023/05/31 05:00:36;;;;;;;1.00;0.93;;;;;;;;;;2097108;28;21801;-61
2023/05/31 05:01:55;;;;;;;3.20;1.05;;;;;;;;;;2099488;28;20032;-61
2023/05/31 05:03:15;;;;;;;1.75;0.65;;;;;;;;;;2096893;28;20028;-60
2023/05/31 05:04:34;;;;;;;1.52;0.70;;;;;;;;;;2099329;28;20033;-61
2023/05/31 05:05:53;;;;;;;2.58;0.70;;;;;;;;;;2097327;28;20035;-62
2023/05/31 05:07:12;;;;;;;4.60;0.82;;;;;;;;;;2100292;28;20453;-60
2023/05/31 05:08:32;;;;;;;5.40;0.60;;;;;;;;;;2100938;28;20048;-62
2023/05/31 05:09:51;;;;;;;1.88;1.10;;;;;;;;;;2098305;28;20032;-62
2023/05/31 05:11:11;;;;;;;7.10;1.67;;;;;;;;;;2098438;28;20024;-62
2023/05/31 05:12:30;;;;;;;6.63;1.38;;;;;;;;;;2097233;28;20035;-61
2023/05/31 05:13:49;;;;;;;2.55;0.98;;;;;;;;;;2099019;28;20032;-62
2023/05/31 05:15:09;;;;;;;2.35;0.95;;;;;;;;;;2095200;28;20023;-60
2023/05/31 05:16:28;;;;;;;2.20;0.90;;;;;;;;;;2098300;28;20028;-61
2023/05/31 05:17:47;;;;;;;3.53;0.75;;;;;;;;;;2099375;28;20428;-61
2023/05/31 05:19:06;;;;;;;4.63;0.90;;;;;;;;;;2099035;28;20020;-62
2023/05/31 05:20:25;;;;;;;4.35;1.15;;;;;;;;;;2097295;28;20036;-61
2023/05/31 05:21:44;;;;;;;4.38;1.00;;;;;;;;;;2101380;28;20063;-59
2023/05/31 05:23:06;;;;;;;7.70;1.30;;;;;;;;;;2099549;28;20032;-62
2023/05/31 05:24:26;;;;;;;9.27;1.75;;;;;;;;;;2099933;28;20028;-61
2023/05/31 05:25:45;;;;;;;5.88;1.25;;;;;;;;;;2098399;28;20028;-60
2023/05/31 05:27:04;;;;;;;1.65;1.05;;;;;;;;;;2097991;28;20037;-61
2023/05/31 05:28:23;;;;;;;4.80;1.02;;;;;;;;;;2098068;28;20043;-61
2023/05/31 05:29:42;;;;;;;4.03;0.82;;;;;;;;;;2097418;28;20032;-61
2023/05/31 05:31:03;;;;;;;4.38;0.82;;;;;;;;;;2096239;28;20261;-61
2023/05/31 05:32:22;;;;;;;3.25;0.88;;;;;;;;;;2097621;28;20028;-61
2023/05/31 05:33:41;;;;;;;5.78;1.23;;;;;;;;;;2100624;28;20484;-61
2023/05/31 05:34:59;;;;;;;2.88;0.90;;;;;;;;;;2100640;28;20032;-62
2023/05/31 05:36:19;;;;;;;3.17;0.82;;;;;;;;;;2096040;28;20032;-61
2023/05/31 05:37:37;;;;;;;3.05;1.13;;;;;;;;;;2103314;28;20025;-60
2023/05/31 05:39:03;;;;;;;9.48;1.40;;;;;;;;;;2098304;28;20028;-61
2023/05/31 05:40:22;;;;;;;8.30;1.85;;;;;;;;;;2093081;28;20028;-61
2023/05/31 05:41:41;;;;;;;1.48;0.75;;;;;;;;;;2101161;28;20536;-61
2023/05/31 05:43:00;;;;;;;2.35;1.20;;;;;;;;;;2099965;28;20032;-61
2023/05/31 05:44:19;;;;;;;4.53;1.00;;;;;;;;;;2102204;28;20037;-60
2023/05/31 05:45:38;;;;;;;4.13;1.08;;;;;;;;;;2103326;28;20153;-62
2023/05/31 05:46:57;;;;;;;2.25;1.08;;;;;;;;;;2103300;28;20036;-60
2023/05/31 05:48:16;;;;;;;2.38;0.98;;;;;;;;;;2100037;28;20032;-61
2023/05/31 05:49:35;;;;;;;3.80;1.00;;;;;;;;;;2101344;28;20032;-62
2023/05/31 05:50:55;;;;;;;3.00;0.90;;;;;;;;;;2104075;28;20597;-61
2023/05/31 05:52:14;;;;;;;3.85;0.98;;;;;;;;;;2104354;28;20028;-62
2023/05/31 05:53:33;;;;;;;4.38;0.95;;;;;;;;;;2104287;28;20063;-61
2023/05/31 05:54:53;;;;;;;3.72;1.10;;;;;;;;;;2101740;28;20028;-63
2023/05/31 05:56:17;;;;;;;2.47;0.70;;;;;;;;;;2106759;28;20103;-62
2023/05/31 05:57:37;;;;;;;5.32;1.20;;;;;;;;;;2107008;28;20024;-62
2023/05/31 05:58:56;;;;;;;3.45;1.08;;;;;;;;;;2105169;28;20481;-62
2023/05/31 06:00:15;;;;;;;9.10;1.20;;;;;;;;;;2106083;28;20040;-62
2023/05/31 06:01:35;;;;;;;3.80;0.82;;;;;;;;;;2106185;28;20103;-66
2023/05/31 06:02:54;;;;;;;3.78;1.17;;;;;;;;;;2105962;28;20115;-61
2023/05/31 06:04:13;;;;;;;5.57;1.20;;;;;;;;;;2105800;28;20044;-62
2023/05/31 06:05:32;;;;;;;4.20;1.15;;;;;;;;;;2103091;28;20473;-61
2023/05/31 06:06:51;;;;;;;5.78;1.45;;;;;;;;;;2105731;28;20162;-61
2023/05/31 06:08:10;;;;;;;3.78;1.25;;;;;;;;;;2104234;28;20131;-62
2023/05/31 06:09:29;;;;;;;1.55;1.00;;;;;;;;;;2105660;28;20049;-62
2023/05/31 06:10:48;;;;;;;2.78;1.00;;;;;;;;;;2105504;28;20071;-62
2023/05/31 06:12:07;;;;;;;3.88;1.13;;;;;;;;;;2105169;28;20504;-62
2023/05/31 06:13:26;;;;;;;8.57;1.00;;;;;;;;;;2105994;28;20040;-62
2023/05/31 06:14:45;;;;;;;2.95;1.13;;;;;;;;;;2106416;28;20020;-61
2023/05/31 06:16:05;;;;;;;6.55;1.42;;;;;;;;;;2105622;28;20040;-60
2023/05/31 06:17:24;;;;;;;2.67;1.10;;;;;;;;;;2105310;28;20056;-61
2023/05/31 06:18:43;;;;;;;5.45;1.08;;;;;;;;;;2104031;28;20023;-60
2023/05/31 06:20:03;;;;;;;1.70;0.85;;;;;;;;;;2105885;28;20028;-62
2023/05/31 06:21:22;;;;;;;3.40;0.90;;;;;;;;;;2105010;28;20490;-62
2023/05/31 06:22:41;;;;;;;4.50;1.20;;;;;;;;;;2104851;28;20027;-62
2023/05/31 06:24:00;;;;;;;1.50;0.80;;;;;;;;;;2104715;28;20479;-62
2023/05/31 06:25:20;;;;;;;3.40;1.42;;;;;;;;;;2105020;28;20158;-62
2023/05/31 06:26:39;;;;;;;2.42;0.90;;;;;;;;;;2105008;28;20028;-61
2023/05/31 06:27:58;;;;;;;3.25;0.90;;;;;;;;;;2104221;28;20040;-61
2023/05/31 06:29:17;;;;;;;4.28;1.52;;;;;;;;;;2105775;28;20397;-61
2023/05/31 06:30:36;;;;;;;6.35;1.17;;;;;;;;;;2104400;28;20686;-62
2023/05/31 06:31:56;;;;;;;2.78;1.23;;;;;;;;;;2105477;28;20465;-65
2023/05/31 06:33:15;;;;;;;3.42;1.15;;;;;;;;;;2105280;28;20472;-62
2023/05/31 06:34:34;;;;;;;6.05;1.00;;;;;;;;;;2104166;28;20020;-62
2023/05/31 06:35:53;;;;;;;31.88;2.88;;;;;;;;;;2103293;28;20024;-61
2023/05/31 06:37:13;;;;;;;8.80;1.25;;;;;;;;;;2104890;28;20024;-63
2023/05/31 06:38:33;;;;;;;10.68;1.23;;;;;;;;;;2104507;28;20488;-62
2023/05/31 06:39:53;;;;;;;7.57;1.42;;;;;;;;;;2106131;28;20024;-62
2023/05/31 06:41:13;;;;;;;9.07;1.50;;;;;;;;;;2106098;28;20230;-62
2023/05/31 06:42:32;;;;;;;9.82;1.40;;;;;;;;;;2102231;28;20024;-61
2023/05/31 06:43:50;;;;;;;3.92;0.77;;;;;;;;;;2105842;28;20063;-61
2023/05/31 06:45:09;;;;;;;3.35;1.00;;;;;;;;;;2105040;28;20028;-63
2023/05/31 06:46:29;;;;;;;3.58;0.60;;;;;;;;;;2104669;28;20037;-63
2023/05/31 06:47:48;;;;;;;3.38;0.90;;;;;;;;;;2102986;28;20028;-60
2023/05/31 06:49:07;;;;;;;1.55;0.77;;;;;;;;;;2102809;28;20070;-62
2023/05/31 06:50:26;;;;;;;5.03;0.90;;;;;;;;;;2104761;28;20028;-63
2023/05/31 06:51:45;;;;;;;5.45;0.98;;;;;;;;;;2104122;28;20035;-60
2023/05/31 06:53:04;;;;;;;2.75;1.00;;;;;;;;;;2104200;28;20059;-61
2023/05/31 06:54:23;;;;;;;3.33;1.10;;;;;;;;;;2105794;28;20032;-63
2023/05/31 06:55:42;;;;;;;3.25;1.20;;;;;;;;;;2104788;28;20032;-63
2023/05/31 06:57:01;;;;;;;4.65;1.10;;;;;;;;;;2106423;28;20111;-61
2023/05/31 06:58:20;;;;;;;7.95;1.13;;;;;;;;;;2104648;28;20139;-63
2023/05/31 06:59:40;;;;;;;4.65;0.90;;;;;;;;;;2105146;28;20020;-63
2023/05/31 07:00:58;;;;;;;4.47;1.20;;;;;;;;;;2102927;28;20016;-62
2023/05/31 07:02:17;;;;;;;5.35;1.23;;;;;;;;;;2105946;28;20024;-62
2023/05/31 07:03:36;;;;;;;7.45;1.08;;;;;;;;;;2103154;28;20058;-62
2023/05/31 07:04:55;;;;;;;9.45;1.33;;;;;;;;;;2101149;28;20040;-61
2023/05/31 07:06:14;;;;;;;3.67;1.20;;;;;;;;;;2103814;28;20036;-63
2023/05/31 07:07:33;;;;;;;2.80;0.88;;;;;;;;;;2104018;28;20207;-63
2023/05/31 07:08:52;;;;;;;6.90;1.13;;;;;;;;;;2103211;28;20036;-62
2023/05/31 07:10:11;;;;;;;5.57;1.05;;;;;;;;;;2105128;28;20024;-64
2023/05/31 07:11:31;;;;;;;6.88;1.70;;;;;;;;;;2105053;28;20024;-62
2023/05/31 07:12:50;;;;;;;5.75;1.10;;;;;;;;;;2104159;28;20016;-61
2023/05/31 07:14:10;;;;;;;10.93;0.98;;;;;;;;;;2105768;28;20024;-63
2023/05/31 07:15:29;;;;;;;1.30;0.88;;;;;;;;;;2104799;28;20020;-62
2023/05/31 07:16:48;;;;;;;5.70;1.08;;;;;;;;;;2103859;28;20020;-64
2023/05/31 07:18:07;;;;;;;4.53;0.88;;;;;;;;;;2101979;28;20028;-61
2023/05/31 07:19:28;;;;;;;3.88;1.17;;;;;;;;;;2100009;28;20028;-62
2023/05/31 07:20:47;;;;;;;8.68;1.08;;;;;;;;;;2102459;28;20044;-62
2023/05/31 07:22:06;;;;;;;6.72;1.10;;;;;;;;;;2105270;28;20031;-62
2023/05/31 07:23:25;;;;;;;2.63;1.10;;;;;;;;;;2100568;28;20045;-60
2023/05/31 07:24:44;;;;;;;5.97;0.80;;;;;;;;;;2104110;28;20393;-61
2023/05/31 07:26:04;;;;;;;5.28;0.80;;;;;;;;;;2103497;28;20528;-62
2023/05/31 07:27:23;;;;;;;6.65;1.20;;;;;;;;;;2103454;28;20032;-60
2023/05/31 07:28:42;;;;;;;2.03;0.60;;;;;;;;;;2104324;28;20159;-60
2023/05/31 07:30:01;;;;;;;5.53;1.35;;;;;;;;;;2105409;28;20512;-61
2023/05/31 07:31:20;;;;;;;2.63;0.70;;;;;;;;;;2106371;28;20485;-62
2023/05/31 07:32:40;;;;;;;5.13;0.70;;;;;;;;;;2104077;28;20028;-61
2023/05/31 07:33:58;;;;;;;6.45;0.80;;;;;;;;;;2104347;28;20504;-62
2023/05/31 07:35:17;;;;;;;8.40;1.13;;;;;;;;;;2103637;28;20028;-62
2023/05/31 07:36:36;;;;;;;8.23;1.73;;;;;;;;;;2104724;28;20032;-62
2023/05/31 07:37:55;;;;;;;12.95;1.52;;;;;;;;;;2103891;28;20043;-62
2023/05/31 07:39:14;;;;;;;0.70;0.50;;;;;;;;;;2103315;28;20079;-63
2023/05/31 07:40:33;;;;;;;3.05;0.60;;;;;;;;;;2104040;28;20497;-62
2023/05/31 07:41:52;;;;;;;5.43;0.90;;;;;;;;;;2105296;28;20024;-61
2023/05/31 07:43:11;;;;;;;5.25;0.70;;;;;;;;;;2104769;28;20036;-63
2023/05/31 07:44:30;;;;;;;3.90;0.80;;;;;;;;;;2104354;28;20444;-66
2023/05/31 07:45:50;;;;;;;7.15;1.00;;;;;;;;;;2103228;28;20459;-62
2023/05/31 07:47:09;;;;;;;0.70;0.52;;;;;;;;;;2101799;28;20032;-63
2023/05/31 07:48:28;;;;;;;5.20;1.02;;;;;;;;;;2102753;28;20361;-62
2023/05/31 07:49:47;;;;;;;6.85;0.90;;;;;;;;;;2105274;28;20406;-60
2023/05/31 07:51:06;;;;;;;1.67;1.02;;;;;;;;;;2103556;28;20020;-62
2023/05/31 07:52:24;;;;;;;3.13;0.98;;;;;;;;;;2104995;28;20024;-65
2023/05/31 07:53:44;;;;;;;2.75;1.30;;;;;;;;;;2103955;28;20020;-62
2023/05/31 07:55:03;;;;;;;2.75;1.00;;;;;;;;;;2101895;28;20028;-62
2023/05/31 07:56:22;;;;;;;2.10;0.90;;;;;;;;;;2102829;28;20024;-61
2023/05/31 07:57:41;;;;;;;2.30;0.63;;;;;;;;;;2100619;28;20036;-63